createdAt,value
2019-02-04T00:02:02.114Z,17.37
2019-02-04T00:04:33.335Z,17.13
2019-02-04T00:07:04.743Z,16.90
2019-02-04T00:09:37.765Z,16.77
2019-02-04T00:12:08.087Z,17.43
2019-02-04T00:14:38.393Z,17.90
2019-02-04T00:17:08.710Z,17.23
2019-02-04T00:19:38.983Z,17.97
2019-02-04T00:22:09.340Z,18.00
2019-02-04T00:24:39.742Z,18.70
2019-02-04T00:27:10.101Z,19.20
2019-02-04T00:29:40.418Z,18.83
2019-02-04T00:32:10.781Z,17.87
2019-02-04T00:34:41.128Z,18.20
2019-02-04T00:37:11.456Z,18.40
2019-02-04T00:39:41.755Z,17.83
2019-02-04T00:42:12.091Z,17.63
2019-02-04T00:44:42.389Z,18.00
2019-02-04T00:47:12.708Z,16.90
2019-02-04T00:49:43.225Z,17.27
2019-02-04T00:52:13.553Z,17.20
2019-02-04T00:54:43.855Z,16.07
2019-02-04T00:57:14.192Z,15.53
2019-02-04T00:59:44.500Z,15.03
2019-02-04T01:02:14.817Z,15.83
2019-02-04T01:04:45.110Z,14.00
2019-02-04T01:07:15.430Z,15.20
2019-02-04T01:09:45.727Z,14.17
2019-02-04T01:12:16.213Z,14.37
2019-02-04T01:14:46.514Z,13.93
2019-02-04T01:17:16.834Z,14.03
2019-02-04T01:19:47.136Z,14.77
2019-02-04T01:22:17.456Z,15.80
2019-02-04T01:24:48.152Z,16.07
2019-02-04T01:27:18.758Z,17.33
2019-02-04T01:29:49.275Z,16.43
2019-02-04T01:32:19.722Z,16.67
2019-02-04T01:34:50.095Z,17.07
2019-02-04T01:37:20.430Z,16.90
2019-02-04T01:39:50.750Z,17.13
2019-02-04T01:42:21.398Z,17.33
2019-02-04T01:44:51.711Z,17.47
2019-02-04T01:47:22.134Z,16.63
2019-02-04T01:49:52.444Z,18.17
2019-02-04T01:52:22.781Z,18.73
2019-02-04T01:54:53.099Z,18.20
2019-02-04T01:57:23.423Z,21.50
2019-02-04T01:59:53.716Z,18.63
2019-02-04T02:02:24.097Z,18.17
2019-02-04T02:04:54.625Z,17.73
2019-02-04T02:07:25.114Z,19.95
2019-02-04T02:09:55.553Z,19.23
2019-02-04T02:12:25.992Z,18.27
2019-02-04T02:14:56.674Z,17.43
2019-02-04T02:17:27.017Z,16.48
2019-02-04T02:19:57.398Z,16.57
2019-02-04T02:22:27.841Z,17.10
2019-02-04T02:24:58.205Z,16.70
2019-02-04T02:27:28.792Z,17.73
2019-02-04T02:29:59.249Z,19.40
2019-02-04T02:32:29.665Z,18.62
2019-02-04T02:35:00.489Z,19.37
2019-02-04T02:37:31.216Z,18.50
2019-02-04T02:40:01.659Z,19.50
2019-02-04T02:42:32.036Z,19.60
2019-02-04T02:45:02.430Z,21.67
2019-02-04T02:47:38.412Z,21.37
2019-02-04T02:50:05.371Z,23.07
2019-02-04T02:52:35.952Z,20.43
2019-02-04T02:55:08.307Z,24.47
2019-02-04T02:57:38.706Z,23.57
2019-02-04T03:00:12.278Z,24.93
2019-02-04T03:02:42.574Z,25.77
2019-02-04T03:05:13.987Z,24.83
2019-02-04T03:07:44.284Z,26.00
2019-02-04T03:10:17.492Z,26.23
2019-02-04T03:12:48.189Z,23.90
2019-02-04T03:15:18.623Z,25.70
2019-02-04T03:17:51.978Z,25.53
2019-02-04T03:20:21.087Z,26.27
2019-02-04T03:22:51.541Z,27.17
2019-02-04T03:25:22.927Z,27.73
2019-02-04T03:27:53.364Z,26.40
2019-02-04T03:30:25.960Z,26.50
2019-02-04T03:32:56.254Z,25.63
2019-02-04T03:35:26.597Z,27.93
2019-02-04T03:37:56.899Z,26.43
2019-02-04T03:40:29.627Z,28.23
2019-02-04T03:43:00.142Z,27.03
2019-02-04T03:45:30.454Z,24.97
2019-02-04T03:48:06.617Z,24.67
2019-02-04T03:50:32.743Z,24.10
2019-02-04T03:53:03.041Z,23.20
2019-02-04T03:55:33.368Z,25.53
2019-02-04T03:58:03.664Z,25.40
2019-02-04T04:00:36.061Z,26.40
2019-02-04T04:03:06.361Z,27.13
2019-02-04T04:05:36.830Z,29.07
2019-02-04T04:08:07.127Z,27.50
2019-02-04T04:10:37.473Z,28.37
2019-02-04T04:13:07.770Z,27.67
2019-02-04T04:15:38.089Z,25.93
2019-02-04T04:18:15.428Z,26.63
2019-02-04T04:20:40.386Z,27.83
2019-02-04T04:23:10.710Z,30.27
2019-02-04T04:25:41.053Z,27.17
2019-02-04T04:28:11.352Z,29.77
2019-02-04T04:30:41.799Z,28.40
2019-02-04T04:33:14.719Z,26.80
2019-02-04T04:35:47.342Z,27.53
2019-02-04T04:38:17.682Z,25.70
2019-02-04T04:40:48.137Z,27.40
2019-02-04T04:43:20.163Z,26.40
2019-02-04T04:45:50.469Z,28.63
2019-02-04T04:48:26.744Z,29.60
2019-02-04T04:50:52.911Z,28.53
2019-02-04T04:53:23.283Z,29.10
2019-02-04T04:55:53.905Z,28.30
2019-02-04T04:58:24.208Z,27.90
2019-02-04T05:00:54.647Z,28.47
2019-02-04T05:03:25.159Z,28.17
2019-02-04T05:05:55.462Z,29.20
2019-02-04T05:08:28.514Z,29.57
2019-02-04T05:10:58.868Z,30.00
2019-02-04T05:13:29.201Z,27.27
2019-02-04T05:15:59.544Z,27.47
2019-02-04T05:18:38.167Z,26.53
2019-02-04T05:21:09.680Z,27.73
2019-02-04T05:23:40.062Z,26.77
2019-02-04T05:26:10.523Z,26.73
2019-02-04T05:28:40.834Z,25.70
2019-02-04T05:31:11.177Z,30.57
2019-02-04T05:33:43.982Z,28.13
2019-02-04T05:36:14.479Z,28.00
2019-02-04T05:38:44.853Z,29.45
2019-02-04T05:41:15.197Z,28.30
2019-02-04T05:43:45.565Z,30.20
2019-02-04T05:46:16.101Z,29.23
2019-02-04T05:48:49.332Z,29.73
2019-02-04T05:51:19.582Z,25.20
2019-02-04T05:53:51.129Z,28.33
2019-02-04T05:56:21.462Z,29.10
2019-02-04T05:58:54.901Z,28.00
2019-02-04T06:01:25.241Z,29.40
2019-02-04T06:03:55.549Z,64.33
2019-02-04T06:06:25.901Z,131.27
2019-02-04T06:08:56.284Z,141.90
2019-02-04T06:11:26.941Z,78.93
2019-02-04T06:13:57.241Z,46.10
2019-02-04T06:16:27.614Z,43.73
2019-02-04T06:19:01.078Z,34.10
2019-02-04T06:21:29.889Z,35.10
2019-02-04T06:24:00.598Z,38.30
2019-02-04T06:26:31.162Z,35.03
2019-02-04T06:29:01.474Z,44.60
2019-02-04T06:31:31.869Z,38.47
2019-02-04T06:34:02.187Z,41.73
2019-02-04T06:36:32.580Z,42.67
2019-02-04T06:39:03.838Z,46.40
2019-02-04T06:41:35.433Z,45.43
2019-02-04T06:44:05.735Z,45.43
2019-02-04T06:46:36.073Z,43.80
2019-02-04T06:49:12.382Z,35.73
2019-02-04T06:51:38.373Z,39.90
2019-02-04T06:54:08.671Z,38.70
2019-02-04T06:56:38.999Z,37.27
2019-02-04T06:59:09.298Z,36.63
2019-02-04T07:01:39.608Z,39.57
2019-02-04T07:04:10.327Z,38.33
2019-02-04T07:06:40.728Z,38.97
2019-02-04T07:09:12.157Z,39.30
2019-02-04T07:11:42.495Z,38.23
2019-02-04T07:14:12.798Z,32.63
2019-02-04T07:16:43.154Z,33.40
2019-02-04T07:19:23.911Z,31.17
2019-02-04T07:21:45.422Z,31.23
2019-02-04T07:24:15.737Z,32.10
2019-02-04T07:26:47.140Z,30.63
2019-02-04T07:29:17.439Z,31.20
2019-02-04T07:31:48.178Z,30.07
2019-02-04T07:34:18.482Z,30.13
2019-02-04T07:36:48.818Z,31.93
2019-02-04T07:39:19.172Z,31.00
2019-02-04T07:41:49.494Z,28.80
2019-02-04T07:44:19.832Z,28.20
2019-02-04T07:46:50.142Z,28.40
2019-02-04T07:49:20.437Z,32.37
2019-02-04T07:51:50.758Z,29.23
2019-02-04T07:54:21.064Z,29.13
2019-02-04T07:56:51.393Z,33.07
2019-02-04T07:59:21.917Z,31.23
2019-02-04T08:01:52.394Z,37.50
2019-02-04T08:04:22.743Z,33.03
2019-02-04T08:06:53.138Z,27.27
2019-02-04T08:09:23.621Z,27.80
2019-02-04T08:11:54.492Z,27.10
2019-02-04T08:14:24.852Z,26.97
2019-02-04T08:16:55.471Z,30.37
2019-02-04T08:19:25.872Z,30.47
2019-02-04T08:21:56.215Z,43.17
2019-02-04T08:24:26.658Z,34.47
2019-02-04T08:26:56.990Z,25.53
2019-02-04T08:29:27.372Z,26.87
2019-02-04T08:31:57.974Z,31.30
2019-02-04T08:34:28.283Z,46.53
2019-02-04T08:36:58.619Z,46.37
2019-02-04T08:39:29.155Z,38.60
2019-02-04T08:41:59.496Z,39.57
2019-02-04T08:44:30.718Z,45.07
2019-02-04T08:47:01.046Z,39.07
2019-02-04T08:49:31.358Z,28.57
2019-02-04T08:52:01.747Z,26.60
2019-02-04T08:54:32.046Z,20.97
2019-02-04T08:57:02.472Z,22.83
2019-02-04T08:59:33.958Z,22.13
2019-02-04T09:02:04.668Z,22.10
2019-02-04T09:04:37.005Z,19.50
2019-02-04T09:07:06.961Z,18.93
2019-02-04T09:09:37.268Z,17.97
2019-02-04T09:12:08.297Z,17.53
2019-02-04T09:14:38.720Z,17.97
2019-02-04T09:17:09.074Z,18.73
2019-02-04T09:19:40.460Z,18.43
2019-02-04T09:22:10.884Z,17.43
2019-02-04T09:24:41.170Z,17.63
2019-02-04T09:27:11.471Z,17.70
2019-02-04T09:29:41.966Z,18.47
2019-02-04T09:32:12.427Z,19.10
2019-02-04T09:34:42.816Z,17.40
2019-02-04T09:37:13.245Z,15.70
2019-02-04T09:39:46.311Z,16.73
2019-02-04T09:42:15.625Z,15.37
2019-02-04T09:44:45.983Z,14.63
2019-02-04T09:47:17.242Z,14.87
2019-02-04T09:49:47.751Z,13.60
2019-02-04T09:52:18.936Z,14.87
2019-02-04T09:54:49.230Z,13.10
2019-02-04T09:57:19.714Z,13.40
2019-02-04T09:59:50.060Z,12.20
2019-02-04T10:02:21.021Z,13.00
2019-02-04T10:04:51.330Z,13.37
2019-02-04T10:07:21.651Z,12.43
2019-02-04T10:09:51.954Z,13.03
2019-02-04T10:12:22.292Z,13.33
2019-02-04T10:14:52.606Z,13.27
2019-02-04T10:17:22.959Z,12.57
2019-02-04T10:19:53.269Z,11.77
2019-02-04T10:22:23.602Z,10.90
2019-02-04T10:24:53.925Z,10.77
2019-02-04T10:27:24.259Z,11.27
2019-02-04T10:29:54.556Z,11.60
2019-02-04T10:32:24.910Z,11.20
2019-02-04T10:34:55.166Z,10.53
2019-02-04T10:37:25.558Z,10.50
2019-02-04T10:39:55.963Z,36.97
2019-02-04T10:42:26.596Z,11.73
2019-02-04T10:44:56.906Z,10.97
2019-02-04T10:47:27.279Z,11.87
2019-02-04T10:49:57.661Z,10.15
2019-02-04T10:52:28.023Z,10.87
2019-02-04T10:54:58.322Z,14.07
2019-02-04T10:57:39.359Z,9.70
2019-02-04T11:00:00.588Z,10.20
2019-02-04T11:02:31.449Z,10.03
2019-02-04T11:05:01.746Z,8.30
2019-02-04T11:07:32.093Z,8.20
2019-02-04T11:10:02.811Z,8.07
2019-02-04T11:12:33.080Z,8.27
2019-02-04T11:15:03.404Z,7.50
2019-02-04T11:17:33.774Z,7.70
2019-02-04T11:20:05.485Z,4.60
2019-02-04T11:22:36.302Z,4.83
2019-02-04T11:25:07.135Z,5.80
2019-02-04T11:27:37.614Z,7.97
2019-02-04T11:30:14.425Z,4.50
2019-02-04T11:32:44.809Z,4.78
2019-02-04T11:35:15.776Z,5.30
2019-02-04T11:37:46.200Z,5.90
2019-02-04T11:40:20.098Z,6.40
2019-02-04T11:42:50.914Z,6.13
2019-02-04T11:45:21.249Z,9.37
2019-02-04T11:47:52.613Z,8.87
2019-02-04T11:50:22.873Z,6.50
2019-02-04T11:52:53.594Z,5.67
2019-02-04T11:55:23.903Z,6.17
2019-02-04T11:57:54.303Z,5.03
2019-02-04T12:00:26.412Z,5.60
2019-02-04T12:02:57.887Z,5.07
2019-02-04T12:05:28.306Z,5.27
2019-02-04T12:07:58.637Z,5.83
2019-02-04T12:10:52.637Z,5.57
2019-02-04T12:13:22.961Z,5.77
2019-02-04T12:15:54.011Z,5.00
2019-02-04T12:18:24.461Z,4.93
2019-02-04T12:20:54.877Z,4.90
2019-02-04T12:23:25.660Z,5.00
2019-02-04T12:25:56.256Z,5.10
2019-02-04T12:28:26.611Z,5.10
2019-02-04T12:30:57.040Z,5.27
2019-02-04T12:33:27.417Z,5.33
2019-02-04T12:35:58.262Z,5.37
2019-02-04T12:38:28.679Z,5.50
2019-02-04T12:40:59.069Z,4.60
2019-02-04T12:43:29.420Z,4.83
2019-02-04T12:45:59.873Z,5.10
2019-02-04T12:48:30.247Z,4.97
2019-02-04T12:51:00.602Z,4.80
2019-02-04T12:53:31.003Z,4.70
2019-02-04T12:56:01.382Z,4.00
2019-02-04T12:58:31.810Z,2.70
2019-02-04T13:01:02.102Z,3.40
2019-02-04T13:03:32.910Z,2.70
2019-02-04T13:06:04.475Z,5.47
2019-02-04T13:08:34.853Z,3.47
2019-02-04T13:11:05.562Z,3.87
2019-02-04T13:13:36.097Z,3.63
2019-02-04T13:16:06.938Z,3.10
2019-02-04T13:18:37.289Z,3.00
2019-02-04T13:21:07.608Z,2.90
2019-02-04T13:23:37.988Z,3.20
2019-02-04T13:26:08.299Z,4.03
2019-02-04T13:28:38.694Z,3.50
2019-02-04T13:31:09.004Z,3.47
2019-02-04T13:33:39.374Z,2.70
2019-02-04T13:36:09.805Z,3.00
2019-02-04T13:38:40.320Z,3.67
2019-02-04T13:41:10.734Z,4.00
2019-02-04T13:43:42.147Z,3.40
2019-02-04T13:46:12.570Z,4.00
2019-02-04T13:48:42.998Z,3.13
2019-02-04T13:51:13.449Z,3.10
2019-02-04T13:53:43.906Z,3.17
2019-02-04T13:56:14.607Z,3.00
2019-02-04T13:58:45.016Z,2.80
2019-02-04T14:01:15.724Z,2.90
2019-02-04T14:03:48.366Z,4.00
2019-02-04T14:06:18.058Z,3.17
2019-02-04T14:08:48.953Z,3.12
2019-02-04T14:11:19.353Z,3.07
2019-02-04T14:13:50.087Z,3.80
2019-02-04T14:16:21.029Z,3.30
2019-02-04T14:18:51.667Z,3.30
2019-02-04T14:21:22.303Z,3.10
2019-02-04T14:23:52.799Z,3.50
2019-02-04T14:26:23.121Z,5.77
2019-02-04T14:28:54.152Z,6.20
2019-02-04T14:31:24.531Z,6.63
2019-02-04T14:33:57.976Z,5.60
2019-02-04T14:36:27.099Z,7.00
2019-02-04T14:38:59.181Z,6.07
2019-02-04T14:41:30.299Z,6.47
2019-02-04T14:44:13.921Z,6.70
2019-02-04T14:47:12.245Z,7.27
2019-02-04T14:50:24.195Z,7.30
2019-02-04T14:53:50.697Z,7.97
2019-02-04T14:56:59.023Z,7.17
2019-02-04T14:59:51.066Z,7.27
2019-02-04T15:02:46.277Z,8.20
2019-02-04T15:05:30.405Z,11.20
2019-02-04T15:08:52.523Z,8.77
2019-02-04T15:12:13.249Z,8.17
2019-02-04T15:15:14.046Z,9.83
2019-02-04T15:18:31.501Z,7.60
2019-02-04T15:21:29.813Z,8.30
2019-02-04T15:24:20.158Z,7.90
2019-02-04T15:27:46.881Z,6.90
2019-02-04T15:30:49.419Z,7.57
2019-02-04T15:33:55.216Z,9.10
2019-02-04T15:37:09.638Z,10.23
2019-02-04T15:40:11.689Z,9.47
2019-02-04T15:43:39.312Z,9.73
2019-02-04T15:46:28.528Z,9.13
2019-02-04T15:49:50.783Z,9.27
2019-02-04T15:52:21.021Z,11.40
2019-02-04T15:54:51.426Z,13.23
2019-02-04T15:57:22.119Z,15.90
2019-02-04T15:59:52.524Z,13.40
2019-02-04T16:02:22.986Z,14.00
2019-02-04T16:04:53.310Z,13.50
2019-02-04T16:07:24.006Z,13.17
2019-02-04T16:09:55.054Z,17.03
2019-02-04T16:12:25.450Z,20.10
2019-02-04T16:14:56.895Z,16.83
2019-02-04T16:17:27.315Z,20.90
2019-02-04T16:19:57.653Z,21.37
2019-02-04T16:22:28.027Z,18.03
2019-02-04T16:24:58.351Z,16.37
2019-02-04T16:27:28.826Z,19.90
2019-02-04T16:29:59.137Z,18.80
2019-02-04T16:32:29.523Z,18.80
2019-02-04T16:34:59.891Z,18.97
2019-02-04T16:37:30.688Z,19.23
2019-02-04T16:40:01.034Z,25.33
2019-02-04T16:42:32.787Z,27.60
2019-02-04T16:45:03.100Z,24.50
2019-02-04T16:47:33.472Z,20.50
2019-02-04T16:50:05.498Z,18.73
2019-02-04T16:52:35.903Z,17.10
2019-02-04T16:55:06.631Z,15.70
2019-02-04T16:57:37.001Z,15.40
2019-02-04T17:00:08.734Z,14.70
2019-02-04T17:02:39.124Z,15.47
2019-02-04T17:05:11.305Z,20.00
2019-02-04T17:07:41.709Z,20.63
2019-02-04T17:10:17.738Z,19.10
2019-02-04T17:12:48.580Z,16.40
2019-02-04T17:15:19.100Z,15.57
2019-02-04T17:17:49.559Z,17.43
2019-02-04T17:20:25.669Z,19.47
2019-02-04T17:22:56.169Z,19.10
2019-02-04T17:25:27.249Z,16.80
2019-02-04T17:27:57.823Z,11.43
2019-02-04T17:30:28.259Z,13.17
2019-02-04T17:32:58.847Z,13.70
2019-02-04T17:35:29.218Z,11.00
2019-02-04T17:37:59.712Z,9.23
2019-02-04T17:40:31.446Z,9.97
2019-02-04T17:43:02.101Z,10.10
2019-02-04T17:45:32.416Z,8.60
2019-02-04T17:48:02.905Z,8.90
2019-02-04T17:50:33.378Z,7.97
2019-02-04T17:53:03.909Z,7.20
2019-02-04T17:55:34.755Z,7.30
2019-02-04T17:58:05.598Z,7.50
2019-02-04T18:00:39.427Z,7.80
2019-02-04T18:03:10.075Z,8.13
2019-02-04T18:05:40.438Z,8.80
2019-02-04T18:08:10.747Z,9.07
2019-02-04T18:10:41.186Z,9.27
2019-02-04T18:13:11.744Z,9.60
2019-02-04T18:15:42.070Z,10.50
2019-02-04T18:18:12.839Z,9.47
2019-02-04T18:20:43.159Z,9.37
2019-02-04T18:23:13.566Z,9.27
2019-02-04T18:25:43.882Z,23.53
2019-02-04T18:28:14.289Z,12.83
2019-02-04T18:30:44.599Z,9.93
2019-02-04T18:33:15.035Z,11.73
2019-02-04T18:35:45.414Z,17.50
2019-02-04T18:38:15.921Z,19.83
2019-02-04T18:40:46.548Z,11.93
2019-02-04T18:43:21.023Z,11.70
2019-02-04T18:45:52.314Z,11.50
2019-02-04T18:48:22.732Z,11.67
2019-02-04T18:50:53.061Z,12.77
2019-02-04T18:53:23.436Z,16.30
2019-02-04T18:55:53.781Z,16.90
2019-02-04T18:58:24.211Z,16.03
2019-02-04T19:00:54.545Z,16.20
2019-02-04T19:03:24.969Z,18.57
2019-02-04T19:05:55.297Z,16.87
2019-02-04T19:08:25.723Z,15.70
2019-02-04T19:10:56.134Z,14.80
2019-02-04T19:13:35.725Z,18.97
2019-02-04T19:15:59.949Z,14.50
2019-02-04T19:18:31.035Z,16.43
2019-02-04T19:21:01.338Z,23.63
2019-02-04T19:23:31.906Z,24.10
2019-02-04T19:26:03.672Z,15.60
2019-02-04T19:28:33.994Z,27.83
2019-02-04T19:31:11.886Z,26.23
2019-02-04T19:33:42.211Z,18.90
2019-02-04T19:36:12.588Z,15.83
2019-02-04T19:38:43.222Z,16.83
2019-02-04T19:41:13.627Z,26.00
2019-02-04T19:43:44.048Z,17.20
2019-02-04T19:46:14.445Z,14.63
2019-02-04T19:48:44.773Z,18.30
2019-02-04T19:51:18.207Z,15.97
2019-02-04T19:53:48.649Z,16.10
2019-02-04T19:56:19.053Z,15.07
2019-02-04T19:58:49.370Z,13.47
2019-02-04T20:01:19.865Z,12.50
2019-02-04T20:03:50.336Z,12.63
2019-02-04T20:06:21.424Z,13.77
2019-02-04T20:08:51.930Z,12.43
2019-02-04T20:11:22.342Z,13.27
2019-02-04T20:13:52.956Z,13.07
2019-02-04T20:16:23.367Z,29.57
2019-02-04T20:18:54.222Z,13.73
2019-02-04T20:21:24.621Z,13.10
2019-02-04T20:23:55.242Z,16.23
2019-02-04T20:26:25.643Z,12.57
2019-02-04T20:28:56.037Z,13.00
2019-02-04T20:31:27.559Z,11.87
2019-02-04T20:33:57.944Z,19.83
2019-02-04T20:36:29.359Z,14.67
2019-02-04T20:38:59.830Z,12.23
2019-02-04T20:41:30.266Z,25.57
2019-02-04T20:44:00.590Z,14.90
2019-02-04T20:46:31.375Z,20.37
2019-02-04T20:49:01.754Z,18.30
2019-02-04T20:51:32.179Z,19.13
2019-02-04T20:54:02.697Z,12.97
2019-02-04T20:56:33.923Z,14.13
2019-02-04T20:59:04.963Z,13.27
2019-02-04T21:01:35.576Z,14.63
2019-02-04T21:04:06.027Z,13.93
2019-02-04T21:06:36.497Z,12.77
2019-02-04T21:09:09.256Z,13.13
2019-02-04T21:11:39.759Z,11.67
2019-02-04T21:14:10.153Z,12.50
2019-02-04T21:16:40.631Z,11.43
2019-02-04T21:19:11.166Z,13.10
2019-02-04T21:21:41.691Z,11.87
2019-02-04T21:24:12.027Z,11.70
2019-02-04T21:26:42.865Z,12.37
2019-02-04T21:29:13.197Z,10.53
2019-02-04T21:31:43.630Z,11.47
2019-02-04T21:34:14.162Z,11.40
2019-02-04T21:36:44.693Z,11.40
2019-02-04T21:39:15.300Z,11.10
2019-02-04T21:41:45.853Z,10.73
2019-02-04T21:44:17.366Z,11.43
2019-02-04T21:46:47.873Z,10.80
2019-02-04T21:49:18.208Z,11.23
2019-02-04T21:51:48.653Z,10.30
2019-02-04T21:54:19.456Z,9.90
2019-02-04T21:56:49.924Z,9.83
2019-02-04T21:59:20.504Z,9.53
2019-02-04T22:01:50.959Z,9.63
2019-02-04T22:04:21.808Z,10.03
2019-02-04T22:06:52.578Z,9.30
2019-02-04T22:09:23.406Z,9.47
2019-02-04T22:11:54.042Z,9.27
2019-02-04T22:14:24.585Z,9.33
2019-02-04T22:16:55.189Z,9.20
2019-02-04T22:19:25.628Z,8.97
2019-02-04T22:21:56.215Z,9.50
2019-02-04T22:24:26.801Z,9.30
2019-02-04T22:26:57.273Z,10.07
2019-02-04T22:29:27.742Z,10.33
2019-02-04T22:31:58.321Z,11.10
2019-02-04T22:34:29.279Z,10.97
2019-02-04T22:37:00.073Z,10.67
2019-02-04T22:39:30.486Z,10.53
2019-02-04T22:42:00.829Z,9.77
2019-02-04T22:44:31.191Z,10.00
2019-02-04T22:47:01.512Z,9.70
2019-02-04T22:49:32.210Z,9.80
2019-02-04T22:52:02.547Z,9.53
2019-02-04T22:54:32.914Z,9.90
2019-02-04T22:57:03.226Z,11.37
2019-02-04T22:59:33.550Z,10.60
2019-02-04T23:02:08.587Z,9.68
2019-02-04T23:04:38.912Z,9.68
2019-02-04T23:07:09.423Z,10.23
2019-02-04T23:09:39.906Z,9.95
2019-02-04T23:12:10.252Z,8.83
2019-02-04T23:14:40.580Z,9.17
2019-02-04T23:17:10.910Z,9.30
2019-02-04T23:19:41.208Z,9.57
2019-02-04T23:22:11.603Z,9.83
2019-02-04T23:24:41.944Z,9.48
2019-02-04T23:27:12.539Z,9.60
2019-02-04T23:29:42.881Z,9.80
2019-02-04T23:32:14.746Z,9.80
2019-02-04T23:34:44.998Z,9.20
2019-02-04T23:37:15.568Z,10.10
2019-02-04T23:39:45.876Z,10.48
2019-02-04T23:42:17.102Z,10.63
2019-02-04T23:44:47.413Z,10.03
2019-02-04T23:47:17.813Z,10.40
2019-02-04T23:49:48.198Z,9.60
2019-02-04T23:52:18.559Z,9.80
2019-02-04T23:54:49.033Z,9.73
2019-02-04T23:57:19.427Z,9.00
2019-02-04T23:59:51.513Z,9.60
